Terminal Aerodrome Forecast
Issued by NWS

Home | Current Version | Previous Version | Text Only | Print | Product List | Glossary On
Versions: 1 2 3 4 5 6 7 8 9 10 11 12 13 14 15 16 17 18 19 20 21 22 23 24 25 26 27 28 29
008
FTUS46 KOTX 010521
TAFSFF
TAF
KSFF 010521Z 0106/0206 VRB03KT P6SM SCT250
     FM011700 17006KT P6SM SCT120 BKN150 BKN200
     FM012100 21009KT P6SM SCT130 SCT250
     FM020300 23005KT P6SM SCT150 BKN200=

USA.gov is the U.S. government's official web portal to all federal, state and local government web resources and services.